Time;durP1;ratioP1;P1;durP2;ratioP2;P2;SDS_P1;SDS_P2;PMS_P1;PMS_P2;Temp;Humidity;BMP_temperature;BMP_pressure;BME280_temperature;BME280_humidity;BME280_pressure;Samples;Min_cycle;Max_cycle;Signal;HPM_P1;HPM_P2
2022/01/18 00:00:15;;;;;;;38.83;5.93;;;6.80;99.90;;;;;;4786435;29;20051;-83
2022/01/18 00:02:40;;;;;;;47.25;7.40;;;6.70;99.90;;;;;;4784971;30;20050;-83
2022/01/18 00:05:07;;;;;;;49.92;6.53;;;6.60;99.90;;;;;;4785363;30;20051;-83
2022/01/18 00:07:33;;;;;;;48.00;6.10;;;6.50;99.90;;;;;;4770412;30;20275;-83
2022/01/18 00:09:59;;;;;;;42.70;5.70;;;6.40;99.90;;;;;;4786157;29;20045;-83
2022/01/18 00:15:18;;;;;;;48.80;6.53;;;6.40;99.90;;;;;;4784639;30;20083;-83
2022/01/18 00:17:52;;;;;;;42.20;6.55;;;6.50;99.90;;;;;;4785716;30;20061;-83
2022/01/18 00:20:25;;;;;;;46.70;6.55;;;6.30;99.90;;;;;;4784002;30;20116;-83
2022/01/18 00:22:50;;;;;;;37.90;5.63;;;6.30;99.90;;;;;;4784591;29;20071;-82
2022/01/18 00:25:17;;;;;;;49.17;6.43;;;6.30;99.90;;;;;;4784734;30;20117;-83
2022/01/18 00:27:43;;;;;;;41.70;5.65;;;6.30;99.90;;;;;;4782282;30;20391;-83
2022/01/18 00:32:56;;;;;;;49.88;6.75;;;6.40;99.90;;;;;;4785160;30;20055;-83
2022/01/18 00:35:22;;;;;;;50.15;7.25;;;6.40;99.90;;;;;;4784845;30;20428;-83
2022/01/18 00:37:53;;;;;;;39.60;6.22;;;6.50;99.90;;;;;;4784866;30;20048;-83
2022/01/18 00:40:19;;;;;;;47.88;6.35;;;6.60;99.90;;;;;;4785292;30;20070;-83
2022/01/18 00:42:45;;;;;;;46.05;7.45;;;6.60;99.90;;;;;;4783992;30;20047;-84
2022/01/18 00:45:10;;;;;;;46.13;6.28;;;6.60;99.90;;;;;;4786526;29;20192;-83
2022/01/18 00:47:36;;;;;;;56.65;6.53;;;6.70;99.90;;;;;;4784727;30;20051;-83
2022/01/18 00:50:03;;;;;;;52.55;6.90;;;6.60;99.90;;;;;;4785516;29;20043;-84
2022/01/18 00:52:31;;;;;;;53.85;6.28;;;6.70;99.90;;;;;;4785370;30;20498;-83
2022/01/18 00:54:59;;;;;;;57.88;7.25;;;6.70;99.90;;;;;;4783897;30;20062;-83
2022/01/18 00:57:25;;;;;;;53.03;7.70;;;6.70;99.90;;;;;;4785264;29;20500;-83
2022/01/18 00:59:50;;;;;;;51.50;6.93;;;6.80;99.90;;;;;;4786032;29;20055;-83
2022/01/18 01:02:16;;;;;;;46.28;6.78;;;6.80;99.90;;;;;;4786122;29;20051;-83
2022/01/18 01:04:47;;;;;;;48.72;7.28;;;6.80;99.90;;;;;;4784395;30;20047;-83
2022/01/18 01:07:17;;;;;;;57.75;6.75;;;6.80;99.90;;;;;;4785781;29;20047;-83
2022/01/18 01:09:43;;;;;;;61.22;8.05;;;6.80;99.90;;;;;;4769460;30;20491;-83
2022/01/18 01:12:11;;;;;;;47.65;6.32;;;6.80;99.90;;;;;;4784148;30;20054;-84
2022/01/18 01:14:36;;;;;;;60.10;6.07;;;6.80;99.90;;;;;;4783584;30;20055;-83
2022/01/18 01:44:07;;;;;;;63.53;7.50;;;6.80;99.90;;;;;;4783291;30;20294;-83
2022/01/18 01:46:33;;;;;;;64.53;7.03;;;6.70;99.90;;;;;;4784462;30;20184;-83
2022/01/18 01:49:01;;;;;;;58.20;7.13;;;6.80;99.90;;;;;;4784945;29;20051;-83
2022/01/18 01:51:30;;;;;;;53.92;6.93;;;6.70;99.90;;;;;;4783434;30;20051;-82
2022/01/18 01:54:02;;;;;;;58.10;7.47;;;6.70;99.90;;;;;;4786865;29;20430;-84
2022/01/18 01:56:28;;;;;;;45.33;6.97;;;6.80;99.90;;;;;;4786052;30;20094;-83
2022/01/18 01:58:54;;;;;;;50.13;6.97;;;6.70;99.90;;;;;;4786851;30;20491;-83
2022/01/18 02:01:19;;;;;;;43.47;5.68;;;6.70;99.90;;;;;;4772428;30;20050;-83
2022/01/18 02:03:46;;;;;;;51.00;6.47;;;6.80;99.90;;;;;;4787304;30;20043;-83
2022/01/18 02:06:12;;;;;;;50.85;5.93;;;6.80;99.90;;;;;;4787207;29;20051;-83
2022/01/18 02:08:38;;;;;;;52.45;6.18;;;6.70;99.90;;;;;;4786635;30;20126;-83
2022/01/18 02:11:03;;;;;;;53.65;6.40;;;6.80;99.90;;;;;;4787060;30;20502;-83
2022/01/18 02:13:31;;;;;;;50.60;5.72;;;6.80;99.90;;;;;;4787014;30;20084;-83
2022/01/18 02:24:02;;;;;;;35.58;5.07;;;6.80;99.90;;;;;;4787851;29;20112;-84
2022/01/18 02:26:28;;;;;;;45.70;5.07;;;6.80;99.90;;;;;;4787122;30;20114;-83
2022/01/18 02:28:54;;;;;;;38.78;5.10;;;6.80;99.90;;;;;;4787793;30;20047;-83
2022/01/18 02:31:20;;;;;;;31.98;4.63;;;6.80;99.90;;;;;;4771566;30;20506;-83
2022/01/18 02:33:45;;;;;;;30.90;4.50;;;6.80;99.90;;;;;;4788002;29;20054;-83
2022/01/18 02:36:11;;;;;;;30.75;4.55;;;6.80;99.90;;;;;;4786726;30;20055;-83
2022/01/18 02:38:37;;;;;;;43.80;4.68;;;6.80;99.90;;;;;;4771644;30;20048;-83
2022/01/18 02:41:03;;;;;;;28.92;4.50;;;6.70;99.90;;;;;;4786527;30;20086;-84
2022/01/18 02:43:50;;;;;;;27.17;3.85;;;6.80;99.90;;;;;;4787017;30;20059;-82
2022/01/18 02:46:15;;;;;;;35.28;5.00;;;6.70;99.90;;;;;;4772707;30;20487;-85
2022/01/18 02:48:41;;;;;;;34.03;4.28;;;6.70;99.90;;;;;;4786673;30;20039;-83
2022/01/18 02:51:06;;;;;;;36.00;4.30;;;6.80;99.90;;;;;;4786714;30;20130;-83
2022/01/18 02:53:32;;;;;;;31.00;4.00;;;6.80;99.90;;;;;;4786978;30;20506;-84
2022/01/18 02:55:58;;;;;;;32.85;4.60;;;6.80;99.90;;;;;;4786235;30;20047;-84
2022/01/18 02:58:28;;;;;;;34.42;4.38;;;6.90;99.90;;;;;;4771981;30;20452;-83
2022/01/18 03:03:29;;;;;;;25.83;3.67;;;6.80;99.90;;;;;;4784494;30;20055;-84
2022/01/18 03:05:55;;;;;;;29.95;4.22;;;6.70;99.90;;;;;;4786825;29;20058;-84
2022/01/18 03:08:21;;;;;;;30.52;4.30;;;6.70;99.90;;;;;;4786241;30;20094;-84
2022/01/18 03:10:47;;;;;;;24.75;3.97;;;6.70;99.90;;;;;;4786205;30;20043;-84
2022/01/18 03:13:12;;;;;;;22.25;3.50;;;6.60;99.90;;;;;;4787208;29;20043;-83
2022/01/18 03:15:38;;;;;;;24.80;3.35;;;6.60;99.90;;;;;;4786849;29;20558;-83
2022/01/18 03:18:06;;;;;;;28.38;3.72;;;6.40;99.90;;;;;;4785897;30;20049;-83
2022/01/18 03:20:31;;;;;;;28.88;4.35;;;6.50;99.90;;;;;;4786345;30;20487;-84
2022/01/18 03:22:57;;;;;;;32.05;4.43;;;6.40;99.90;;;;;;4786304;30;20123;-83
2022/01/18 03:25:29;;;;;;;27.67;4.20;;;6.40;99.90;;;;;;4770405;30;20051;-83
2022/01/18 03:28:06;;;;;;;23.38;3.38;;;6.40;99.90;;;;;;4786040;30;20510;-83
2022/01/18 03:30:40;;;;;;;27.48;3.97;;;6.40;99.90;;;;;;4771784;30;20504;-83
2022/01/18 03:33:08;;;;;;;30.42;3.83;;;6.30;99.90;;;;;;4785642;30;20506;-83
2022/01/18 03:35:35;;;;;;;28.85;4.35;;;6.40;99.90;;;;;;4800203;29;20116;-83
2022/01/18 03:38:00;;;;;;;24.95;3.20;;;6.30;99.90;;;;;;4786586;29;20058;-83
2022/01/18 03:40:26;;;;;;;30.25;3.55;;;6.40;99.90;;;;;;4784116;30;20142;-83
2022/01/18 03:42:52;;;;;;;31.17;3.75;;;6.40;99.90;;;;;;4785415;30;20120;-83
2022/01/18 03:45:24;;;;;;;27.10;4.38;;;6.50;99.90;;;;;;4785494;30;20056;-83
2022/01/18 03:47:50;;;;;;;28.15;5.00;;;6.60;99.90;;;;;;4786074;30;20051;-83
2022/01/18 03:50:16;;;;;;;26.15;3.42;;;6.50;99.90;;;;;;4786514;29;20059;-83
2022/01/18 03:52:42;;;;;;;26.30;3.30;;;6.60;99.90;;;;;;4785359;30;20043;-83
2022/01/18 03:55:08;;;;;;;29.42;3.90;;;6.60;99.90;;;;;;4785183;30;20126;-87
2022/01/18 03:57:34;;;;;;;30.00;3.65;;;6.70;99.90;;;;;;4786887;29;20048;-83
2022/01/18 04:00:00;;;;;;;18.15;3.22;;;6.70;99.90;;;;;;4785134;30;20070;-83
2022/01/18 04:02:25;;;;;;;27.20;3.75;;;6.90;99.90;;;;;;4770060;30;20398;-83
2022/01/18 04:04:51;;;;;;;24.25;3.33;;;6.80;99.90;;;;;;4786736;29;20474;-83
2022/01/18 04:07:17;;;;;;;25.08;4.05;;;6.80;99.90;;;;;;4784337;30;20104;-83
2022/01/18 04:09:42;;;;;;;23.25;3.40;;;6.80;99.90;;;;;;4785052;30;20134;-83
2022/01/18 04:12:08;;;;;;;25.42;3.28;;;6.80;99.90;;;;;;4785052;30;20049;-83
2022/01/18 04:14:34;;;;;;;24.80;3.55;;;6.80;99.90;;;;;;4784837;30;20051;-85
2022/01/18 04:17:11;;;;;;;29.83;3.85;;;6.90;99.90;;;;;;4785109;29;20055;-84
2022/01/18 04:28:02;;;;;;;24.25;3.60;;;6.90;99.90;;;;;;4784745;30;20047;-83
2022/01/18 04:30:28;;;;;;;17.77;3.30;;;6.90;99.90;;;;;;4785705;30;20422;-84
2022/01/18 04:32:53;;;;;;;25.98;3.95;;;6.90;99.90;;;;;;4782726;30;20059;-84
2022/01/18 04:35:19;;;;;;;22.52;3.60;;;7.00;99.90;;;;;;4785852;29;20459;-85
2022/01/18 04:37:45;;;;;;;17.48;2.95;;;7.00;99.90;;;;;;4783360;30;20058;-86
2022/01/18 04:40:15;;;;;;;20.48;3.70;;;6.90;99.90;;;;;;4770062;30;20054;-86
2022/01/18 04:50:47;;;;;;;17.13;3.83;;;7.00;99.90;;;;;;4785160;29;20055;-83
2022/01/18 04:53:12;;;;;;;15.13;2.80;;;6.90;99.90;;;;;;4769923;30;20058;-83
2022/01/18 04:55:38;;;;;;;14.27;2.70;;;7.00;99.90;;;;;;4785492;29;20508;-83
2022/01/18 04:58:03;;;;;;;13.00;2.40;;;7.00;99.90;;;;;;4785839;30;20087;-83
2022/01/18 05:00:29;;;;;;;16.48;2.72;;;6.90;99.90;;;;;;4785040;29;20493;-83
2022/01/18 05:02:55;;;;;;;23.20;3.47;;;7.00;99.90;;;;;;4784293;30;20050;-83
2022/01/18 05:05:25;;;;;;;15.55;2.70;;;7.10;99.90;;;;;;4768491;30;20051;-83
2022/01/18 05:07:52;;;;;;;21.42;3.38;;;7.00;99.90;;;;;;4785914;29;20275;-84
2022/01/18 05:10:20;;;;;;;19.48;3.22;;;6.90;99.90;;;;;;4769050;30;20055;-84
2022/01/18 05:12:49;;;;;;;13.35;2.42;;;6.90;99.90;;;;;;4784149;30;20055;-83
2022/01/18 05:23:09;;;;;;;14.65;2.67;;;6.80;99.90;;;;;;4769323;30;19926;-84
2022/01/18 05:25:35;;;;;;;17.27;3.30;;;6.70;99.90;;;;;;4785036;29;20440;-83
2022/01/18 05:28:01;;;;;;;19.08;3.17;;;6.80;99.90;;;;;;4771113;30;20062;-84
2022/01/18 05:30:27;;;;;;;16.95;3.33;;;6.90;99.90;;;;;;4772780;30;20150;-84
2022/01/18 05:32:53;;;;;;;20.52;4.57;;;6.80;99.90;;;;;;4787436;30;20043;-84
2022/01/18 05:35:19;;;;;;;19.35;3.55;;;6.90;99.90;;;;;;4789088;29;20100;-83
2022/01/18 05:37:48;;;;;;;17.10;3.58;;;7.00;99.90;;;;;;4787938;30;20081;-88
2022/01/18 05:40:15;;;;;;;19.83;3.97;;;6.90;99.90;;;;;;4787946;30;20047;-88
2022/01/18 05:42:41;;;;;;;19.92;3.15;;;6.90;99.90;;;;;;4772205;30;20384;-87
2022/01/18 05:45:07;;;;;;;14.18;3.08;;;6.90;99.90;;;;;;4788424;29;20088;-88
2022/01/18 05:47:33;;;;;;;18.25;3.58;;;6.90;99.90;;;;;;4772691;30;20402;-88
2022/01/18 05:49:59;;;;;;;17.05;3.20;;;6.90;99.90;;;;;;4786844;30;20183;-83
2022/01/18 05:52:24;;;;;;;16.83;3.58;;;6.90;99.90;;;;;;4787943;30;20547;-87
2022/01/18 05:54:50;;;;;;;21.48;3.28;;;6.90;99.90;;;;;;4788073;30;20058;-85
2022/01/18 05:57:16;;;;;;;17.20;3.50;;;6.90;99.90;;;;;;4785717;30;20051;-84
2022/01/18 05:59:45;;;;;;;18.92;3.55;;;6.90;99.90;;;;;;4789046;29;20046;-93
2022/01/18 06:02:28;;;;;;;19.05;3.75;;;6.90;99.90;;;;;;4772968;30;20499;-85
2022/01/18 06:07:37;;;;;;;16.95;3.60;;;6.90;99.90;;;;;;4787389;30;20486;-84
2022/01/18 06:10:03;;;;;;;14.30;3.20;;;6.90;99.90;;;;;;4789084;29;20044;-84
2022/01/18 06:12:29;;;;;;;8.43;2.47;;;6.80;99.90;;;;;;4773356;30;20055;-86
2022/01/18 06:14:55;;;;;;;15.77;3.90;;;6.80;99.90;;;;;;4789228;30;20398;-85
2022/01/18 06:17:21;;;;;;;18.17;3.42;;;6.80;99.90;;;;;;4790235;29;20543;-84
2022/01/18 06:19:46;;;;;;;14.52;3.33;;;6.80;99.90;;;;;;4788474;30;20063;-84
2022/01/18 06:22:12;;;;;;;17.30;3.50;;;6.80;99.90;;;;;;4789696;29;20471;-83
2022/01/18 06:24:37;;;;;;;15.18;3.65;;;6.80;99.90;;;;;;4789210;29;20502;-84
2022/01/18 06:27:03;;;;;;;17.30;3.50;;;6.80;99.90;;;;;;4789579;29;20062;-84
2022/01/18 06:29:29;;;;;;;13.98;3.25;;;6.80;99.90;;;;;;4789241;29;20047;-85
2022/01/18 06:31:55;;;;;;;14.43;3.53;;;6.80;99.90;;;;;;4789630;29;20100;-84
2022/01/18 06:34:20;;;;;;;12.70;3.45;;;6.70;99.90;;;;;;4787492;29;20399;-85
2022/01/18 06:36:46;;;;;;;18.02;3.25;;;6.70;99.90;;;;;;4771571;30;20051;-83
2022/01/18 06:39:11;;;;;;;14.10;3.13;;;6.70;99.90;;;;;;4787011;29;20053;-84
2022/01/18 06:41:38;;;;;;;15.25;3.35;;;6.70;99.90;;;;;;4785869;30;20051;-84
2022/01/18 06:44:04;;;;;;;17.40;3.47;;;6.70;99.90;;;;;;4786767;30;20098;-84
2022/01/18 06:46:30;;;;;;;17.60;3.92;;;6.70;99.90;;;;;;4787048;30;20157;-84
2022/01/18 06:48:55;;;;;;;18.73;3.22;;;6.70;99.90;;;;;;4788480;29;20091;-83
2022/01/18 06:51:21;;;;;;;11.20;2.95;;;6.80;99.90;;;;;;4788395;30;20108;-83
2022/01/18 06:53:48;;;;;;;12.82;3.15;;;6.70;99.90;;;;;;4773720;30;20513;-83
2022/01/18 06:56:15;;;;;;;14.40;3.33;;;6.70;99.90;;;;;;4789746;29;20051;-84
2022/01/18 06:58:40;;;;;;;15.45;3.42;;;6.70;99.90;;;;;;4773601;30;20059;-83
2022/01/18 07:01:06;;;;;;;17.00;3.60;;;6.70;99.90;;;;;;4788640;30;20072;-83
2022/01/18 07:03:32;;;;;;;18.40;3.65;;;6.70;99.90;;;;;;4789701;29;20073;-83
2022/01/18 07:05:58;;;;;;;10.55;3.20;;;6.70;99.90;;;;;;4759108;30;20097;-83
2022/01/18 07:08:23;;;;;;;9.98;3.10;;;6.70;99.90;;;;;;4789592;29;20103;-83
2022/01/18 07:10:49;;;;;;;15.45;3.58;;;6.70;99.90;;;;;;4789074;29;20116;-83
2022/01/18 07:13:15;;;;;;;15.40;3.80;;;6.70;99.90;;;;;;4788537;30;20084;-83
2022/01/18 07:15:41;;;;;;;14.35;3.58;;;6.70;99.90;;;;;;4788186;30;20107;-83
2022/01/18 07:18:07;;;;;;;16.63;4.00;;;6.70;99.90;;;;;;4789248;29;20514;-83
2022/01/18 07:20:33;;;;;;;15.13;3.55;;;6.70;99.90;;;;;;4788359;30;20055;-83
2022/01/18 07:22:59;;;;;;;17.50;3.60;;;6.60;99.90;;;;;;4787802;30;20051;-83
2022/01/18 07:25:25;;;;;;;14.90;3.22;;;6.70;99.90;;;;;;4788037;30;20087;-83
2022/01/18 07:27:51;;;;;;;13.18;3.28;;;6.70;99.90;;;;;;4787472;30;20510;-83
2022/01/18 07:30:17;;;;;;;16.38;3.40;;;6.60;99.90;;;;;;4788071;30;20135;-83
2022/01/18 07:32:43;;;;;;;14.82;3.30;;;6.60;99.90;;;;;;4772686;30;20047;-84
2022/01/18 07:35:09;;;;;;;14.13;3.53;;;6.50;99.90;;;;;;4788322;30;20059;-83
2022/01/18 07:37:35;;;;;;;14.10;3.47;;;6.50;99.90;;;;;;4788137;30;20051;-83
2022/01/18 07:40:01;;;;;;;10.98;3.30;;;6.50;99.90;;;;;;4788727;29;20402;-83
2022/01/18 07:42:26;;;;;;;13.68;3.50;;;6.40;99.90;;;;;;4772916;30;20469;-83
2022/01/18 07:44:52;;;;;;;15.10;4.00;;;6.30;99.90;;;;;;4787556;29;20399;-83
2022/01/18 07:47:18;;;;;;;16.08;3.33;;;6.20;99.90;;;;;;4787871;30;20094;-83
2022/01/18 07:49:45;;;;;;;17.23;4.15;;;6.10;99.90;;;;;;4787429;30;20058;-83
2022/01/18 07:52:10;;;;;;;14.00;4.03;;;6.10;99.90;;;;;;4772541;30;20078;-83
2022/01/18 07:54:36;;;;;;;14.48;3.53;;;6.00;99.90;;;;;;4788518;29;20055;-83
2022/01/18 07:57:02;;;;;;;16.15;4.70;;;6.00;99.90;;;;;;4787398;30;20055;-84
2022/01/18 07:59:28;;;;;;;16.75;4.75;;;6.00;99.90;;;;;;4772810;30;20055;-83
2022/01/18 08:01:54;;;;;;;15.35;3.70;;;6.00;99.90;;;;;;4787196;30;20426;-84
2022/01/18 08:04:20;;;;;;;15.23;3.40;;;6.00;99.90;;;;;;4772405;30;20059;-83
2022/01/18 08:06:45;;;;;;;17.17;3.30;;;6.10;99.90;;;;;;4788064;29;20058;-84
2022/01/18 08:09:11;;;;;;;17.52;3.42;;;6.10;99.90;;;;;;4787375;30;20047;-84
2022/01/18 08:11:37;;;;;;;11.68;3.13;;;6.20;99.90;;;;;;4788185;29;20058;-83
2022/01/18 08:14:03;;;;;;;15.80;4.18;;;6.20;99.90;;;;;;4786636;30;20460;-84
2022/01/18 08:18:56;;;;;;;12.73;4.40;;;6.40;99.90;;;;;;4771821;30;20066;-84
2022/01/18 08:21:21;;;;;;;16.77;3.90;;;6.40;99.90;;;;;;4772135;30;20074;-84
2022/01/18 08:23:47;;;;;;;17.30;3.80;;;6.50;99.90;;;;;;4786693;30;20059;-84
2022/01/18 08:26:13;;;;;;;15.50;4.00;;;6.50;99.90;;;;;;4787132;30;20376;-84
2022/01/18 08:28:38;;;;;;;14.82;3.92;;;6.60;99.90;;;;;;4771886;30;20047;-84
2022/01/18 08:31:04;;;;;;;13.00;4.20;;;6.60;99.90;;;;;;4786277;30;20043;-83
2022/01/18 08:33:31;;;;;;;16.90;4.72;;;6.70;99.90;;;;;;4787827;29;20051;-84
2022/01/18 08:35:59;;;;;;;20.25;4.57;;;6.80;99.90;;;;;;4785959;30;20518;-84
2022/01/18 08:38:28;;;;;;;16.60;5.10;;;6.80;99.90;;;;;;4786779;30;20091;-84
2022/01/18 08:40:54;;;;;;;15.23;6.20;;;6.80;99.90;;;;;;4771824;30;20069;-84
2022/01/18 08:43:20;;;;;;;18.10;5.30;;;6.80;99.90;;;;;;4771392;30;20478;-85
2022/01/18 08:45:46;;;;;;;19.35;5.40;;;6.90;99.90;;;;;;4786630;30;20138;-84
2022/01/18 08:48:12;;;;;;;12.82;5.32;;;6.90;99.90;;;;;;4771623;30;20134;-84
2022/01/18 08:50:38;;;;;;;20.17;5.72;;;7.00;99.90;;;;;;4771716;30;20197;-84
2022/01/18 08:53:04;;;;;;;15.65;5.60;;;7.00;99.90;;;;;;4770940;30;20059;-84
2022/01/18 08:55:32;;;;;;;20.40;6.70;;;7.00;99.90;;;;;;4771630;30;20395;-84
2022/01/18 08:57:58;;;;;;;23.33;7.70;;;7.10;99.90;;;;;;4786200;30;20055;-84
2022/01/18 09:00:23;;;;;;;22.02;7.22;;;7.00;99.90;;;;;;4771678;30;20051;-84
2022/01/18 09:02:49;;;;;;;21.88;6.95;;;7.10;99.90;;;;;;4770822;30;20445;-87
2022/01/18 09:05:15;;;;;;;19.80;6.32;;;7.10;99.90;;;;;;4786446;30;20479;-84
2022/01/18 09:07:41;;;;;;;22.75;7.50;;;7.10;99.90;;;;;;4771579;30;20394;-84
2022/01/18 09:10:09;;;;;;;21.75;7.15;;;7.10;99.90;;;;;;4771090;30;20418;-84
2022/01/18 09:12:35;;;;;;;20.35;7.07;;;7.20;99.90;;;;;;4771399;30;20059;-84
2022/01/18 09:15:01;;;;;;;21.17;7.38;;;7.20;99.90;;;;;;4770996;30;20537;-84
2022/01/18 09:17:30;;;;;;;23.10;7.35;;;7.30;99.90;;;;;;4771410;30;20142;-84
2022/01/18 09:19:56;;;;;;;17.33;7.10;;;7.30;99.90;;;;;;4770709;30;20673;-84
2022/01/18 09:22:22;;;;;;;17.10;6.75;;;7.30;99.90;;;;;;4786313;30;20055;-84
2022/01/18 09:24:48;;;;;;;17.83;6.38;;;7.30;99.90;;;;;;4771353;30;20063;-84
2022/01/18 09:27:14;;;;;;;15.68;6.32;;;7.20;99.90;;;;;;4786790;29;20055;-84
2022/01/18 09:29:40;;;;;;;16.02;5.93;;;7.30;99.90;;;;;;4771436;30;20050;-83
2022/01/18 09:32:06;;;;;;;16.67;6.28;;;7.30;99.90;;;;;;4785477;30;20066;-84
2022/01/18 09:34:32;;;;;;;17.58;6.22;;;7.30;99.90;;;;;;4771429;30;20051;-84
2022/01/18 09:36:58;;;;;;;15.88;5.97;;;7.30;99.90;;;;;;4770807;30;20403;-84
2022/01/18 09:39:25;;;;;;;15.13;5.88;;;7.40;99.90;;;;;;4771169;30;20054;-83
2022/01/18 09:41:52;;;;;;;22.35;6.57;;;7.30;99.90;;;;;;4771116;30;20043;-84
2022/01/18 09:44:18;;;;;;;20.30;6.20;;;7.40;99.90;;;;;;4786742;29;20426;-85
2022/01/18 09:46:44;;;;;;;19.20;5.90;;;7.40;99.90;;;;;;4785807;29;20071;-84
2022/01/18 09:49:09;;;;;;;13.18;5.70;;;7.40;99.90;;;;;;4770947;30;20055;-84
2022/01/18 09:51:35;;;;;;;15.70;5.70;;;7.50;99.90;;;;;;4756536;30;20402;-85
2022/01/18 09:54:01;;;;;;;15.27;5.80;;;7.50;99.90;;;;;;4785889;30;20534;-85
2022/01/18 09:56:26;;;;;;;12.18;5.57;;;7.50;99.90;;;;;;4786088;30;20047;-84
2022/01/18 09:58:52;;;;;;;15.70;5.53;;;7.60;99.90;;;;;;4786206;30;20551;-83
2022/01/18 10:01:18;;;;;;;20.90;5.85;;;7.60;99.90;;;;;;4785871;30;20120;-84
2022/01/18 10:03:44;;;;;;;21.65;5.55;;;7.60;99.90;;;;;;4771044;30;20047;-84
2022/01/18 10:06:10;;;;;;;15.35;4.97;;;7.70;99.90;;;;;;4785684;30;20107;-84
2022/01/18 10:08:37;;;;;;;17.65;5.35;;;7.80;99.90;;;;;;4771275;30;20055;-84
2022/01/18 10:11:16;;;;;;;11.98;5.03;;;7.90;99.90;;;;;;4770581;30;20088;-85
2022/01/18 10:13:42;;;;;;;14.35;4.38;;;7.90;99.90;;;;;;4787103;29;20399;-84
2022/01/18 10:16:21;;;;;;;15.73;4.57;;;8.00;99.90;;;;;;4774195;30;20051;-84
2022/01/18 10:18:53;;;;;;;14.63;4.15;;;7.90;99.90;;;;;;4774690;30;20055;-85
2022/01/18 10:21:39;;;;;;;14.75;4.07;;;8.00;99.90;;;;;;4774169;30;20112;-84
2022/01/18 10:24:21;;;;;;;12.25;4.10;;;8.00;99.90;;;;;;4775214;30;20482;-84
2022/01/18 10:26:48;;;;;;;9.95;3.03;;;8.10;99.90;;;;;;4788813;30;20097;-82
2022/01/18 10:29:14;;;;;;;14.55;3.38;;;7.90;99.90;;;;;;4788294;30;20055;-84
2022/01/18 10:32:11;;;;;;;11.95;3.13;;;8.00;99.90;;;;;;4773941;30;20050;-83
2022/01/18 10:37:02;;;;;;;9.45;2.65;;;8.10;99.90;;;;;;4788885;30;20094;-81
2022/01/18 10:39:33;;;;;;;12.52;2.92;;;8.00;99.90;;;;;;4789788;29;20055;-82
2022/01/18 10:41:59;;;;;;;9.93;3.22;;;8.10;99.90;;;;;;4774031;30;20411;-83
2022/01/18 10:44:25;;;;;;;13.07;2.90;;;8.20;99.90;;;;;;4788064;30;20419;-83
2022/01/18 10:46:55;;;;;;;9.50;3.15;;;8.10;99.90;;;;;;4788512;30;20051;-83
2022/01/18 10:49:36;;;;;;;9.57;2.88;;;8.20;99.90;;;;;;4773300;30;20063;-84
2022/01/18 10:52:10;;;;;;;12.02;2.80;;;8.20;99.90;;;;;;4773598;30;20093;-85
2022/01/18 10:54:37;;;;;;;9.45;3.15;;;8.20;99.90;;;;;;4758943;30;20059;-84
2022/01/18 10:57:03;;;;;;;11.63;2.63;;;8.20;99.90;;;;;;4788257;30;20550;-84
2022/01/18 10:59:29;;;;;;;10.25;3.03;;;8.20;99.90;;;;;;4773235;30;20047;-84
2022/01/18 11:02:18;;;;;;;7.88;2.25;;;8.20;99.90;;;;;;4789484;29;20360;-83
2022/01/18 11:04:45;;;;;;;6.25;2.40;;;8.20;99.90;;;;;;4788976;30;20447;-81
2022/01/18 11:07:11;;;;;;;8.38;2.40;;;8.20;99.90;;;;;;4789088;30;20048;-83
2022/01/18 11:09:37;;;;;;;9.02;2.40;;;8.20;99.90;;;;;;4758187;30;20050;-82
2022/01/18 11:12:05;;;;;;;8.80;2.33;;;8.20;99.90;;;;;;4788032;30;20441;-85
2022/01/18 11:14:31;;;;;;;10.48;2.30;;;8.20;99.90;;;;;;4787907;30;20143;-83
2022/01/18 11:16:58;;;;;;;8.73;2.75;;;8.20;99.90;;;;;;4789209;29;20079;-83
2022/01/18 11:21:52;;;;;;;9.55;2.58;;;8.30;99.90;;;;;;4788050;30;20087;-83
2022/01/18 11:24:18;;;;;;;13.02;3.13;;;8.30;99.90;;;;;;4772647;30;20059;-84
2022/01/18 11:26:45;;;;;;;5.65;2.50;;;8.30;99.90;;;;;;4787460;29;20066;-83
2022/01/18 11:29:11;;;;;;;8.82;2.90;;;8.30;99.90;;;;;;4788596;29;20059;-88
2022/01/18 11:31:37;;;;;;;10.02;2.70;;;8.30;99.90;;;;;;4787436;30;20501;-83
2022/01/18 11:34:03;;;;;;;9.57;2.85;;;8.30;99.90;;;;;;4758274;30;20063;-84
2022/01/18 11:36:33;;;;;;;11.55;3.00;;;8.30;99.90;;;;;;4787229;30;20059;-84
2022/01/18 11:39:02;;;;;;;9.23;3.05;;;8.30;99.90;;;;;;4772965;30;20055;-83
2022/01/18 11:41:29;;;;;;;10.63;3.22;;;8.30;99.90;;;;;;4772490;30;20055;-83
2022/01/18 11:43:56;;;;;;;9.48;2.65;;;8.30;99.90;;;;;;4787153;30;20067;-84
2022/01/18 11:46:35;;;;;;;10.65;3.28;;;8.40;99.90;;;;;;4772659;30;20082;-84
2022/01/18 11:49:06;;;;;;;8.55;2.90;;;8.40;99.90;;;;;;4787516;30;20122;-84
2022/01/18 11:51:59;;;;;;;13.60;3.70;;;8.40;99.90;;;;;;4787235;30;20472;-84
2022/01/18 11:54:55;;;;;;;13.45;3.20;;;8.50;99.90;;;;;;4772487;30;20059;-84
2022/01/18 11:57:21;;;;;;;11.57;3.30;;;8.40;99.90;;;;;;4787211;30;20059;-84
2022/01/18 11:59:48;;;;;;;14.95;3.75;;;8.40;99.90;;;;;;4787509;30;20054;-83
2022/01/18 12:02:33;;;;;;;12.13;3.67;;;8.40;99.90;;;;;;4788380;29;20464;-84
2022/01/18 12:05:06;;;;;;;11.27;4.05;;;8.50;99.90;;;;;;4772908;30;20387;-84
2022/01/18 12:07:36;;;;;;;13.15;3.75;;;8.40;99.90;;;;;;4786745;30;20062;-84
2022/01/18 12:10:33;;;;;;;10.55;3.35;;;8.40;99.90;;;;;;4788166;29;20062;-84
2022/01/18 12:13:04;;;;;;;14.63;3.88;;;8.40;99.90;;;;;;4786994;30;20055;-83
2022/01/18 12:15:32;;;;;;;13.75;4.07;;;8.50;99.90;;;;;;4787675;29;20445;-84
2022/01/18 12:18:18;;;;;;;13.43;4.20;;;8.50;99.90;;;;;;4787204;30;20051;-83
2022/01/18 12:20:45;;;;;;;10.93;3.97;;;8.50;99.90;;;;;;4772254;30;20513;-84
2022/01/18 12:23:18;;;;;;;13.52;4.55;;;8.50;99.90;;;;;;4787120;29;20066;-84
2022/01/18 12:26:03;;;;;;;10.85;4.53;;;8.50;99.90;;;;;;4787939;29;20063;-84
2022/01/18 12:34:30;;;;;;;17.85;6.30;;;8.40;99.90;;;;;;4788303;29;20153;-83
2022/01/18 12:37:07;;;;;;;15.68;5.68;;;8.30;99.90;;;;;;4787429;29;20063;-83
2022/01/18 12:45:03;;;;;;;17.05;5.50;;;8.30;99.90;;;;;;4788136;29;20059;-85
2022/01/18 12:47:29;;;;;;;16.65;5.90;;;8.30;99.90;;;;;;4787547;29;20059;-82
2022/01/18 12:49:55;;;;;;;15.20;5.78;;;8.30;99.90;;;;;;4786861;30;20058;-83
2022/01/18 12:52:20;;;;;;;16.90;6.10;;;8.30;99.90;;;;;;4787710;29;20376;-83
2022/01/18 12:54:49;;;;;;;18.30;5.85;;;8.40;99.90;;;;;;4787745;29;20471;-83
2022/01/18 12:57:16;;;;;;;14.10;5.55;;;8.40;99.90;;;;;;4772162;30;20051;-84
2022/01/18 13:00:02;;;;;;;15.57;5.72;;;8.40;99.90;;;;;;4771437;30;20094;-83
2022/01/18 13:02:28;;;;;;;15.93;5.82;;;8.40;99.90;;;;;;4785907;30;20111;-83
2022/01/18 13:05:07;;;;;;;15.60;6.07;;;8.40;99.90;;;;;;4786127;30;20574;-82
2022/01/18 13:07:32;;;;;;;17.58;6.38;;;8.40;99.90;;;;;;4785894;30;20059;-83
2022/01/18 13:10:01;;;;;;;20.45;6.57;;;8.40;99.90;;;;;;4786239;30;20150;-83
2022/01/18 13:12:33;;;;;;;16.30;6.00;;;8.40;99.90;;;;;;4770626;30;20452;-82
2022/01/18 13:15:02;;;;;;;15.00;5.78;;;8.40;99.90;;;;;;4787632;29;20052;-81
2022/01/18 13:23:28;;;;;;;21.83;6.30;;;8.40;99.90;;;;;;4786558;30;20186;-81
2022/01/18 13:25:58;;;;;;;16.25;5.30;;;8.40;99.90;;;;;;4787407;29;20120;-81
2022/01/18 13:28:37;;;;;;;17.42;5.57;;;8.40;99.90;;;;;;4787572;29;20055;-81
2022/01/18 13:31:16;;;;;;;12.38;5.10;;;8.40;99.90;;;;;;4787386;29;20145;-82
2022/01/18 13:33:52;;;;;;;15.48;4.95;;;8.40;99.90;;;;;;4786170;30;20089;-82
2022/01/18 13:36:18;;;;;;;14.98;5.65;;;8.40;99.90;;;;;;4786069;30;20618;-82
2022/01/18 13:38:44;;;;;;;21.00;6.15;;;8.30;99.90;;;;;;4787027;29;20058;-81
2022/01/18 13:41:09;;;;;;;15.85;4.70;;;8.40;99.90;;;;;;4786529;30;20056;-82
2022/01/18 13:43:35;;;;;;;13.32;3.92;;;8.30;99.90;;;;;;4785566;30;20078;-82
2022/01/18 13:46:01;;;;;;;16.95;4.20;;;8.30;99.90;;;;;;4787444;29;20134;-83
2022/01/18 13:48:33;;;;;;;14.45;4.78;;;8.20;99.90;;;;;;4788104;29;20059;-82
2022/01/18 13:50:59;;;;;;;10.73;4.70;;;8.20;99.90;;;;;;4790941;29;20051;-81
2022/01/18 13:53:27;;;;;;;13.75;4.15;;;8.10;99.90;;;;;;4789661;30;20514;-81
2022/01/18 13:55:58;;;;;;;11.77;3.92;;;8.10;99.90;;;;;;4789338;30;20083;-82
2022/01/18 13:58:25;;;;;;;16.45;4.13;;;8.10;99.90;;;;;;4774781;30;20057;-81
2022/01/18 14:00:51;;;;;;;11.48;4.20;;;8.00;99.90;;;;;;4790413;29;20349;-81
2022/01/18 14:03:43;;;;;;;14.80;4.82;;;8.00;99.90;;;;;;4791008;30;20505;-82
2022/01/18 14:06:10;;;;;;;13.82;3.83;;;7.90;99.90;;;;;;4790374;29;20059;-81
2022/01/18 14:08:38;;;;;;;14.43;4.40;;;7.70;99.90;;;;;;4789119;30;20119;-82
2022/01/18 14:11:08;;;;;;;10.32;4.47;;;7.70;99.90;;;;;;4789477;30;20380;-81
2022/01/18 14:13:37;;;;;;;13.70;4.57;;;7.70;99.90;;;;;;4789054;30;20055;-83
2022/01/18 14:16:17;;;;;;;14.48;5.13;;;7.70;99.90;;;;;;4789474;30;20055;-82
2022/01/18 14:18:53;;;;;;;16.63;5.18;;;7.70;99.90;;;;;;4789039;30;20058;-81
2022/01/18 14:21:23;;;;;;;16.70;5.30;;;7.80;99.90;;;;;;4789379;30;20055;-82
2022/01/18 14:23:48;;;;;;;11.85;5.13;;;7.80;99.90;;;;;;4788846;30;20495;-81
2022/01/18 14:26:20;;;;;;;15.13;5.10;;;7.80;99.90;;;;;;4788864;30;20176;-82